sensor_id;sensor_type;location;lat;lon;timestamp;pressure;altitude;pressure_sealevel;temperature;humidity
61908;BME280;47864;52.526;19.672;2023-09-08T00:01:08;152986.44;;;15.91;100.00
61908;BME280;47864;52.526;19.672;2023-09-08T00:03:09;153041.03;;;16.13;100.00
61908;BME280;47864;52.526;19.672;2023-09-08T00:05:11;153010.53;;;16.01;100.00
61908;BME280;47864;52.526;19.672;2023-09-08T00:07:13;153014.38;;;16.03;100.00
61908;BME280;47864;52.526;19.672;2023-09-08T00:09:14;153011.81;;;16.02;100.00
61908;BME280;47864;52.526;19.672;2023-09-08T00:11:16;153009.28;;;16.01;100.00
61908;BME280;47864;52.526;19.672;2023-09-08T00:13:18;153005.47;;;15.99;100.00
61908;BME280;47864;52.526;19.672;2023-09-08T00:15:20;152997.88;;;15.96;100.00
61908;BME280;47864;52.526;19.672;2023-09-08T00:17:21;153011.81;;;16.02;100.00
61908;BME280;47864;52.526;19.672;2023-09-08T00:19:23;153024.50;;;16.07;100.00
61908;BME280;47864;52.526;19.672;2023-09-08T00:21:25;153013.09;;;16.02;100.00
61908;BME280;47864;52.526;19.672;2023-09-08T00:23:27;153001.69;;;15.97;100.00
61908;BME280;47864;52.526;19.672;2023-09-08T00:25:28;152976.31;;;15.87;100.00
61908;BME280;47864;52.526;19.672;2023-09-08T00:27:30;152967.41;;;15.84;100.00
61908;BME280;47864;52.526;19.672;2023-09-08T00:29:32;152958.53;;;15.80;100.00
61908;BME280;47864;52.526;19.672;2023-09-08T00:31:34;152956.00;;;15.79;100.00
61908;BME280;47864;52.526;19.672;2023-09-08T00:33:35;152966.13;;;15.83;100.00
61908;BME280;47864;52.526;19.672;2023-09-08T00:35:38;152934.44;;;15.71;100.00
61908;BME280;47864;52.526;19.672;2023-09-08T00:37:40;152942.00;;;15.74;100.00
61908;BME280;47864;52.526;19.672;2023-09-08T00:39:41;152959.81;;;15.81;100.00
61908;BME280;47864;52.526;19.672;2023-09-08T00:41:43;152944.56;;;15.75;100.00
61908;BME280;47864;52.526;19.672;2023-09-08T00:43:44;152935.72;;;15.71;100.00
61908;BME280;47864;52.526;19.672;2023-09-08T00:45:49;152916.69;;;15.64;100.00
61908;BME280;47864;52.526;19.672;2023-09-08T00:47:51;152921.72;;;15.66;100.00
61908;BME280;47864;52.526;19.672;2023-09-08T00:49:53;152888.69;;;15.52;100.00
61908;BME280;47864;52.526;19.672;2023-09-08T00:51:55;152891.28;;;15.53;100.00
61908;BME280;47864;52.526;19.672;2023-09-08T00:53:56;152889.97;;;15.53;100.00
61908;BME280;47864;52.526;19.672;2023-09-08T00:55:59;152912.88;;;15.62;100.00
61908;BME280;47864;52.526;19.672;2023-09-08T00:58:02;152878.53;;;15.48;100.00
61908;BME280;47864;52.526;19.672;2023-09-08T01:00:04;152868.41;;;15.44;100.00
61908;BME280;47864;52.526;19.672;2023-09-08T01:02:06;152858.22;;;15.40;100.00
61908;BME280;47864;52.526;19.672;2023-09-08T01:04:07;152895.13;;;15.55;100.00
61908;BME280;47864;52.526;19.672;2023-09-08T01:06:09;152906.50;;;15.59;100.00
61908;BME280;47864;52.526;19.672;2023-09-08T01:08:11;152909.03;;;15.60;100.00
61908;BME280;47864;52.526;19.672;2023-09-08T01:10:13;152902.69;;;15.58;100.00
61908;BME280;47864;52.526;19.672;2023-09-08T01:12:15;152876.03;;;15.47;100.00
61908;BME280;47864;52.526;19.672;2023-09-08T01:14:20;152850.66;;;15.37;100.00
61908;BME280;47864;52.526;19.672;2023-09-08T01:16:21;152836.72;;;15.32;100.00
61908;BME280;47864;52.526;19.672;2023-09-08T01:18:23;152834.19;;;15.31;100.00
61908;BME280;47864;52.526;19.672;2023-09-08T01:25:23;152818.91;;;15.24;100.00
61908;BME280;47864;52.526;19.672;2023-09-08T01:27:27;152824.00;;;15.27;100.00
61908;BME280;47864;52.526;19.672;2023-09-08T01:29:30;152832.91;;;15.30;100.00
61908;BME280;47864;52.526;19.672;2023-09-08T01:31:32;152806.25;;;15.19;100.00
61908;BME280;47864;52.526;19.672;2023-09-08T01:33:34;152773.31;;;15.06;100.00
61908;BME280;47864;52.526;19.672;2023-09-08T01:35:36;152816.38;;;15.23;100.00
61908;BME280;47864;52.526;19.672;2023-09-08T01:37:45;152810.06;;;15.21;100.00
61908;BME280;47864;52.526;19.672;2023-09-08T01:39:47;152794.88;;;15.15;100.00
61908;BME280;47864;52.526;19.672;2023-09-08T01:41:49;152794.88;;;15.15;100.00
61908;BME280;47864;52.526;19.672;2023-09-08T01:43:50;152750.47;;;14.97;100.00
61908;BME280;47864;52.526;19.672;2023-09-08T01:45:52;152812.63;;;15.22;100.00
61908;BME280;47864;52.526;19.672;2023-09-08T01:47:53;152797.34;;;15.16;100.00
61908;BME280;47864;52.526;19.672;2023-09-08T01:49:55;152799.91;;;15.17;100.00
61908;BME280;47864;52.526;19.672;2023-09-08T01:51:56;152788.50;;;15.12;100.00
61908;BME280;47864;52.526;19.672;2023-09-08T01:53:58;152784.69;;;15.11;100.00
61908;BME280;47864;52.526;19.672;2023-09-08T01:55:59;152750.47;;;14.97;100.00
61908;BME280;47864;52.526;19.672;2023-09-08T01:58:01;152751.75;;;14.98;100.00
61908;BME280;47864;52.526;19.672;2023-09-08T02:00:03;152772.03;;;15.06;100.00
61908;BME280;47864;52.526;19.672;2023-09-08T02:02:04;152750.47;;;14.97;100.00
61908;BME280;47864;52.526;19.672;2023-09-08T02:04:06;152739.03;;;14.93;100.00
61908;BME280;47864;52.526;19.672;2023-09-08T02:06:07;152756.78;;;15.00;100.00
61908;BME280;47864;52.526;19.672;2023-09-08T02:08:09;152755.50;;;14.99;100.00
61908;BME280;47864;52.526;19.672;2023-09-08T02:10:11;152753.00;;;14.98;100.00
61908;BME280;47864;52.526;19.672;2023-09-08T02:12:12;152736.50;;;14.92;100.00
61908;BME280;47864;52.526;19.672;2023-09-08T02:14:14;152703.53;;;14.78;100.00
61908;BME280;47864;52.526;19.672;2023-09-08T02:16:15;152731.47;;;14.90;100.00
61908;BME280;47864;52.526;19.672;2023-09-08T02:18:17;152730.19;;;14.89;100.00
61908;BME280;47864;52.526;19.672;2023-09-08T02:20:19;152721.28;;;14.85;100.00
61908;BME280;47864;52.526;19.672;2023-09-08T02:22:20;152670.59;;;14.65;100.00
61908;BME280;47864;52.526;19.672;2023-09-08T02:24:22;152706.09;;;14.79;100.00
61908;BME280;47864;52.526;19.672;2023-09-08T02:26:23;152682.00;;;14.70;100.00
61908;BME280;47864;52.526;19.672;2023-09-08T02:28:25;152685.81;;;14.71;100.00
61908;BME280;47864;52.526;19.672;2023-09-08T02:30:26;152690.88;;;14.73;100.00
61908;BME280;47864;52.526;19.672;2023-09-08T02:32:28;152675.63;;;14.67;100.00
61908;BME280;47864;52.526;19.672;2023-09-08T02:34:30;152665.50;;;14.63;100.00
61908;BME280;47864;52.526;19.672;2023-09-08T02:36:31;152661.69;;;14.62;100.00
61908;BME280;47864;52.526;19.672;2023-09-08T02:38:33;152637.59;;;14.52;100.00
61908;BME280;47864;52.526;19.672;2023-09-08T02:40:35;152605.94;;;14.39;100.00
61908;BME280;47864;52.526;19.672;2023-09-08T02:42:37;152654.06;;;14.59;100.00
61908;BME280;47864;52.526;19.672;2023-09-08T02:44:39;152631.25;;;14.50;100.00
61908;BME280;47864;52.526;19.672;2023-09-08T02:46:40;152637.59;;;14.52;100.00
61908;BME280;47864;52.526;19.672;2023-09-08T02:48:42;152607.22;;;14.40;100.00
61908;BME280;47864;52.526;19.672;2023-09-08T02:50:44;152605.94;;;14.39;100.00
61908;BME280;47864;52.526;19.672;2023-09-08T02:52:45;152645.22;;;14.55;100.00
61908;BME280;47864;52.526;19.672;2023-09-08T02:54:47;152657.88;;;14.60;100.00
61908;BME280;47864;52.526;19.672;2023-09-08T02:56:48;152662.97;;;14.62;100.00
61908;BME280;47864;52.526;19.672;2023-09-08T02:58:50;152655.34;;;14.59;100.00
61908;BME280;47864;52.526;19.672;2023-09-08T03:00:52;152638.88;;;14.53;100.00
61908;BME280;47864;52.526;19.672;2023-09-08T03:02:54;152664.25;;;14.63;100.00
61908;BME280;47864;52.526;19.672;2023-09-08T03:04:56;152654.06;;;14.59;100.00
61908;BME280;47864;52.526;19.672;2023-09-08T03:06:57;152626.22;;;14.48;100.00
61908;BME280;47864;52.526;19.672;2023-09-08T03:08:59;152646.50;;;14.56;100.00
61908;BME280;47864;52.526;19.672;2023-09-08T03:11:01;152645.22;;;14.55;100.00
61908;BME280;47864;52.526;19.672;2023-09-08T03:13:05;152652.81;;;14.58;100.00
61908;BME280;47864;52.526;19.672;2023-09-08T03:15:07;152647.78;;;14.56;100.00
61908;BME280;47864;52.526;19.672;2023-09-08T03:17:08;152627.50;;;14.48;100.00
61908;BME280;47864;52.526;19.672;2023-09-08T03:19:10;152628.75;;;14.49;100.00
61908;BME280;47864;52.526;19.672;2023-09-08T03:21:13;152622.41;;;14.46;100.00
61908;BME280;47864;52.526;19.672;2023-09-08T03:23:16;152633.78;;;14.51;100.00
61908;BME280;47864;52.526;19.672;2023-09-08T03:25:17;152627.50;;;14.48;100.00
61908;BME280;47864;52.526;19.672;2023-09-08T03:27:19;152605.94;;;14.39;100.00
61908;BME280;47864;52.526;19.672;2023-09-08T03:29:21;152574.19;;;14.27;100.00
61908;BME280;47864;52.526;19.672;2023-09-08T03:31:22;152585.63;;;14.31;100.00
61908;BME280;47864;52.526;19.672;2023-09-08T03:33:24;152612.25;;;14.42;100.00
61908;BME280;47864;52.526;19.672;2023-09-08T03:35:26;152594.47;;;14.35;100.00
61908;BME280;47864;52.526;19.672;2023-09-08T03:37:27;152576.72;;;14.28;100.00
61908;BME280;47864;52.526;19.672;2023-09-08T03:39:29;152565.34;;;14.23;100.00
61908;BME280;47864;52.526;19.672;2023-09-08T03:41:30;152571.63;;;14.26;100.00
61908;BME280;47864;52.526;19.672;2023-09-08T03:43:32;152565.34;;;14.23;100.00
61908;BME280;47864;52.526;19.672;2023-09-08T03:45:34;152584.34;;;14.31;100.00
61908;BME280;47864;52.526;19.672;2023-09-08T03:47:35;152588.16;;;14.32;100.00
61908;BME280;47864;52.526;19.672;2023-09-08T03:49:37;152579.25;;;14.29;100.00
61908;BME280;47864;52.526;19.672;2023-09-08T03:51:39;152574.19;;;14.27;100.00
61908;BME280;47864;52.526;19.672;2023-09-08T03:53:41;152561.53;;;14.22;100.00
61908;BME280;47864;52.526;19.672;2023-09-08T03:55:42;152581.81;;;14.30;100.00
61908;BME280;47864;52.526;19.672;2023-09-08T03:57:44;152567.88;;;14.24;100.00
61908;BME280;47864;52.526;19.672;2023-09-08T03:59:45;152520.97;;;14.05;100.00
61908;BME280;47864;52.526;19.672;2023-09-08T04:01:47;152552.63;;;14.18;100.00
61908;BME280;47864;52.526;19.672;2023-09-08T04:03:48;152564.06;;;14.23;100.00
61908;BME280;47864;52.526;19.672;2023-09-08T04:05:50;152541.25;;;14.14;100.00
61908;BME280;47864;52.526;19.672;2023-09-08T04:07:51;152572.91;;;14.26;100.00
61908;BME280;47864;52.526;19.672;2023-09-08T04:09:53;152561.53;;;14.22;100.00
61908;BME280;47864;52.526;19.672;2023-09-08T04:11:55;152546.31;;;14.16;100.00
61908;BME280;47864;52.526;19.672;2023-09-08T04:13:56;152557.72;;;14.20;100.00
61908;BME280;47864;52.526;19.672;2023-09-08T04:15:58;152572.91;;;14.26;100.00
61908;BME280;47864;52.526;19.672;2023-09-08T04:17:59;152558.97;;;14.21;100.00
61908;BME280;47864;52.526;19.672;2023-09-08T04:20:05;152542.53;;;14.14;100.00
61908;BME280;47864;52.526;19.672;2023-09-08T04:22:06;152567.88;;;14.24;100.00
61908;BME280;47864;52.526;19.672;2023-09-08T04:24:08;152566.59;;;14.24;100.00
61908;BME280;47864;52.526;19.672;2023-09-08T04:26:09;152584.34;;;14.31;100.00
61908;BME280;47864;52.526;19.672;2023-09-08T04:28:11;152585.63;;;14.31;100.00
61908;BME280;47864;52.526;19.672;2023-09-08T04:30:13;152571.63;;;14.26;100.00
61908;BME280;47864;52.526;19.672;2023-09-08T04:32:14;152609.75;;;14.41;100.00
61908;BME280;47864;52.526;19.672;2023-09-08T04:34:16;152619.88;;;14.45;100.00
61908;BME280;47864;52.526;19.672;2023-09-08T04:36:17;152624.94;;;14.47;100.00
61908;BME280;47864;52.526;19.672;2023-09-08T04:38:19;152637.59;;;14.52;100.00
61908;BME280;47864;52.526;19.672;2023-09-08T04:40:20;152652.81;;;14.58;100.00
61908;BME280;47864;52.526;19.672;2023-09-08T04:42:22;152685.81;;;14.71;100.00
61908;BME280;47864;52.526;19.672;2023-09-08T04:44:23;152679.44;;;14.69;100.00
61908;BME280;47864;52.526;19.672;2023-09-08T04:46:25;152723.81;;;14.87;100.00
61908;BME280;47864;52.526;19.672;2023-09-08T04:48:27;152712.44;;;14.82;100.00
61908;BME280;47864;52.526;19.672;2023-09-08T04:50:31;152766.94;;;15.04;100.00
61908;BME280;47864;52.526;19.672;2023-09-08T04:52:32;152785.97;;;15.11;100.00
61908;BME280;47864;52.526;19.672;2023-09-08T04:54:34;152761.88;;;15.02;100.00
61908;BME280;47864;52.526;19.672;2023-09-08T04:56:36;152799.91;;;15.17;100.00
61908;BME280;47864;52.526;19.672;2023-09-08T04:58:37;152850.66;;;15.37;100.00
61908;BME280;47864;52.526;19.672;2023-09-08T05:00:39;152843.03;;;15.34;100.00
61908;BME280;47864;52.526;19.672;2023-09-08T05:02:41;152901.41;;;15.57;100.00
61908;BME280;47864;52.526;19.672;2023-09-08T05:04:43;152914.13;;;15.63;100.00
61908;BME280;47864;52.526;19.672;2023-09-08T05:06:44;152934.44;;;15.71;100.00
61908;BME280;47864;52.526;19.672;2023-09-08T05:08:46;153000.41;;;15.97;100.00
61908;BME280;47864;52.526;19.672;2023-09-08T05:10:47;153076.56;;;16.27;100.00
61908;BME280;47864;52.526;19.672;2023-09-08T05:12:49;153251.78;;;16.97;100.00
61908;BME280;47864;52.526;19.672;2023-09-08T05:14:50;153367.38;;;17.43;100.00
61908;BME280;47864;52.526;19.672;2023-09-08T05:16:52;153378.78;;;17.48;100.00
61908;BME280;47864;52.526;19.672;2023-09-08T05:18:54;153386.41;;;17.51;100.00
61908;BME280;47864;52.526;19.672;2023-09-08T05:20:55;153471.59;;;17.85;100.00
61908;BME280;47864;52.526;19.672;2023-09-08T05:22:57;153671.16;;;18.65;100.00
61908;BME280;47864;52.526;19.672;2023-09-08T05:24:58;153814.84;;;19.22;100.00
61908;BME280;47864;52.526;19.672;2023-09-08T05:27:00;153702.97;;;18.77;100.00
61908;BME280;47864;52.526;19.672;2023-09-08T05:29:01;153705.47;;;18.78;100.00
61908;BME280;47864;52.526;19.672;2023-09-08T05:31:03;153786.84;;;19.11;100.00
61908;BME280;47864;52.526;19.672;2023-09-08T05:33:04;153965.00;;;19.82;100.00
61908;BME280;47864;52.526;19.672;2023-09-08T05:35:06;154036.22;;;20.10;100.00
61908;BME280;47864;52.526;19.672;2023-09-08T05:37:08;153966.25;;;19.82;100.00
61908;BME280;47864;52.526;19.672;2023-09-08T05:39:09;154001.88;;;19.96;100.00
61908;BME280;47864;52.526;19.672;2023-09-08T05:41:11;154019.69;;;20.03;100.00
61908;BME280;47864;52.526;19.672;2023-09-08T05:43:12;154099.91;;;20.35;100.00
61908;BME280;47864;52.526;19.672;2023-09-08T05:45:14;154167.38;;;20.62;100.00
61908;BME280;47864;52.526;19.672;2023-09-08T05:47:15;154280.69;;;21.07;100.00
61908;BME280;47864;52.526;19.672;2023-09-08T05:49:17;154437.38;;;21.70;100.00
61908;BME280;47864;52.526;19.672;2023-09-08T05:51:19;154547.00;;;22.13;96.25
61908;BME280;47864;52.526;19.672;2023-09-08T05:53:20;154691.00;;;22.70;95.37
61908;BME280;47864;52.526;19.672;2023-09-08T05:55:22;154775.16;;;23.04;89.22
61908;BME280;47864;52.526;19.672;2023-09-08T05:57:23;154909.06;;;23.57;89.81
61908;BME280;47864;52.526;19.672;2023-09-08T05:59:25;154909.06;;;23.57;84.92
61908;BME280;47864;52.526;19.672;2023-09-08T06:01:26;154824.88;;;23.24;84.81
61908;BME280;47864;52.526;19.672;2023-09-08T06:03:28;154840.19;;;23.30;86.78
61908;BME280;47864;52.526;19.672;2023-09-08T06:05:30;154902.72;;;23.55;86.10
61908;BME280;47864;52.526;19.672;2023-09-08T06:07:31;154904.00;;;23.55;84.04
61908;BME280;47864;52.526;19.672;2023-09-08T06:09:33;154916.75;;;23.60;83.56
61908;BME280;47864;52.526;19.672;2023-09-08T06:11:34;154920.56;;;23.62;83.03
61908;BME280;47864;52.526;19.672;2023-09-08T06:13:36;154984.34;;;23.87;82.24
61908;BME280;47864;52.526;19.672;2023-09-08T06:15:38;155009.81;;;23.97;79.94
61908;BME280;47864;52.526;19.672;2023-09-08T06:17:39;154953.72;;;23.75;82.97
61908;BME280;47864;52.526;19.672;2023-09-08T06:19:41;154939.72;;;23.69;82.37
61908;BME280;47864;52.526;19.672;2023-09-08T06:21:42;154856.75;;;23.36;82.33
61908;BME280;47864;52.526;19.672;2023-09-08T06:23:44;154974.13;;;23.83;81.76
61908;BME280;47864;52.526;19.672;2023-09-08T06:25:46;154942.25;;;23.70;83.44
61908;BME280;47864;52.526;19.672;2023-09-08T06:27:47;155002.19;;;23.94;80.55
61908;BME280;47864;52.526;19.672;2023-09-08T06:29:49;155059.59;;;24.17;80.86
61908;BME280;47864;52.526;19.672;2023-09-08T06:31:50;155073.66;;;24.22;79.28
61908;BME280;47864;52.526;19.672;2023-09-08T06:33:52;155160.44;;;24.57;78.87
61908;BME280;47864;52.526;19.672;2023-09-08T06:35:54;155225.50;;;24.83;77.07
61908;BME280;47864;52.526;19.672;2023-09-08T06:37:55;155074.94;;;24.23;80.53
61908;BME280;47864;52.526;19.672;2023-09-08T06:39:57;155294.50;;;25.10;79.08
61908;BME280;47864;52.526;19.672;2023-09-08T06:41:58;155391.50;;;25.49;76.07
61908;BME280;47864;52.526;19.672;2023-09-08T06:44:00;155355.78;;;25.34;75.39
61908;BME280;47864;52.526;19.672;2023-09-08T06:46:01;155470.72;;;25.80;74.42
61908;BME280;47864;52.526;19.672;2023-09-08T06:48:03;155405.53;;;25.54;74.03
61908;BME280;47864;52.526;19.672;2023-09-08T06:50:05;155528.16;;;26.03;74.62
61908;BME280;47864;52.526;19.672;2023-09-08T06:52:07;155503.94;;;25.93;74.20
61908;BME280;47864;52.526;19.672;2023-09-08T06:54:08;155496.28;;;25.90;73.15
61908;BME280;47864;52.526;19.672;2023-09-08T06:56:10;155498.81;;;25.91;72.61
61908;BME280;47864;52.526;19.672;2023-09-08T06:58:11;155502.66;;;25.93;72.01
61908;BME280;47864;52.526;19.672;2023-09-08T07:00:13;155601.03;;;26.32;71.67
61908;BME280;47864;52.526;19.672;2023-09-08T07:02:15;155601.03;;;26.32;70.88
61908;BME280;47864;52.526;19.672;2023-09-08T07:04:17;155704.53;;;26.73;71.56
61908;BME280;47864;52.526;19.672;2023-09-08T07:06:19;155764.63;;;26.97;69.98
61908;BME280;47864;52.526;19.672;2023-09-08T07:08:20;155749.31;;;26.91;69.28
61908;BME280;47864;52.526;19.672;2023-09-08T07:10:22;155741.56;;;26.87;68.89
61908;BME280;47864;52.526;19.672;2023-09-08T07:12:23;155814.47;;;27.16;69.56
61908;BME280;47864;52.526;19.672;2023-09-08T07:14:25;155841.28;;;27.27;68.14
61908;BME280;47864;52.526;19.672;2023-09-08T07:16:26;155929.53;;;27.62;67.34
61908;BME280;47864;52.526;19.672;2023-09-08T07:18:28;155956.41;;;27.73;67.36
61908;BME280;47864;52.526;19.672;2023-09-08T07:20:30;155999.88;;;27.90;65.13
61908;BME280;47864;52.526;19.672;2023-09-08T07:22:31;156015.19;;;27.96;64.93
61908;BME280;47864;52.526;19.672;2023-09-08T07:24:33;156071.50;;;28.18;66.23
61908;BME280;47864;52.526;19.672;2023-09-08T07:26:34;156109.84;;;28.33;65.86
61908;BME280;47864;52.526;19.672;2023-09-08T07:28:36;156093.25;;;28.27;64.88
61908;BME280;47864;52.526;19.672;2023-09-08T07:30:38;156095.81;;;28.28;62.79
61908;BME280;47864;52.526;19.672;2023-09-08T07:32:40;156116.25;;;28.36;64.48
61908;BME280;47864;52.526;19.672;2023-09-08T07:34:41;156153.34;;;28.51;62.51
61908;BME280;47864;52.526;19.672;2023-09-08T07:36:43;156144.41;;;28.47;62.69
61908;BME280;47864;52.526;19.672;2023-09-08T07:38:45;156187.91;;;28.64;63.45
61908;BME280;47864;52.526;19.672;2023-09-08T07:40:46;156074.06;;;28.19;64.37
61908;BME280;47864;52.526;19.672;2023-09-08T07:42:48;156051.00;;;28.10;64.89
61908;BME280;47864;52.526;19.672;2023-09-08T07:44:49;156099.66;;;28.29;62.78
61908;BME280;47864;52.526;19.672;2023-09-08T07:46:51;156090.66;;;28.26;64.93
61908;BME280;47864;52.526;19.672;2023-09-08T07:48:53;156166.16;;;28.56;62.87
61908;BME280;47864;52.526;19.672;2023-09-08T07:50:54;156194.28;;;28.67;63.34
61908;BME280;47864;52.526;19.672;2023-09-08T07:52:56;156150.78;;;28.50;62.51
61908;BME280;47864;52.526;19.672;2023-09-08T07:54:58;156091.97;;;28.26;63.48
61908;BME280;47864;52.526;19.672;2023-09-08T07:56:59;156106.06;;;28.32;63.59
61908;BME280;47864;52.526;19.672;2023-09-08T07:59:01;156130.31;;;28.42;62.31
61908;BME280;47864;52.526;19.672;2023-09-08T08:01:02;156126.53;;;28.40;64.43
61908;BME280;47864;52.526;19.672;2023-09-08T08:03:04;156125.25;;;28.39;62.91
61908;BME280;47864;52.526;19.672;2023-09-08T08:05:06;156120.09;;;28.37;62.66
61908;BME280;47864;52.526;19.672;2023-09-08T08:07:09;156140.56;;;28.46;64.19
61908;BME280;47864;52.526;19.672;2023-09-08T08:09:10;156163.59;;;28.55;63.12
61908;BME280;47864;52.526;19.672;2023-09-08T08:11:13;156177.66;;;28.60;62.82
61908;BME280;47864;52.526;19.672;2023-09-08T08:13:15;156194.28;;;28.67;61.91
61908;BME280;47864;52.526;19.672;2023-09-08T08:15:19;156200.69;;;28.69;61.30
61908;BME280;47864;52.526;19.672;2023-09-08T08:17:21;156200.69;;;28.69;61.52
61908;BME280;47864;52.526;19.672;2023-09-08T08:19:22;156157.19;;;28.52;62.44
61908;BME280;47864;52.526;19.672;2023-09-08T08:21:27;156189.19;;;28.65;60.62
61908;BME280;47864;52.526;19.672;2023-09-08T08:23:32;156218.63;;;28.76;59.89
61908;BME280;47864;52.526;19.672;2023-09-08T08:25:34;156242.94;;;28.86;60.75
61908;BME280;47864;52.526;19.672;2023-09-08T08:27:36;156248.06;;;28.88;60.61
61908;BME280;47864;52.526;19.672;2023-09-08T08:29:38;156245.50;;;28.87;59.77
61908;BME280;47864;52.526;19.672;2023-09-08T08:31:40;156222.47;;;28.78;58.79
61908;BME280;47864;52.526;19.672;2023-09-08T08:33:42;156178.94;;;28.61;58.93
61908;BME280;47864;52.526;19.672;2023-09-08T08:35:50;156181.50;;;28.62;59.55
61908;BME280;47864;52.526;19.672;2023-09-08T08:37:52;156233.97;;;28.83;56.09
61908;BME280;47864;52.526;19.672;2023-09-08T08:39:53;156184.06;;;28.63;56.54
61908;BME280;47864;52.526;19.672;2023-09-08T08:41:55;156217.34;;;28.76;58.25
61908;BME280;47864;52.526;19.672;2023-09-08T08:43:57;156061.25;;;28.14;58.99
61908;BME280;47864;52.526;19.672;2023-09-08T08:46:01;156052.28;;;28.11;58.94
61908;BME280;47864;52.526;19.672;2023-09-08T08:48:04;156083.03;;;28.23;61.55
61908;BME280;47864;52.526;19.672;2023-09-08T08:50:07;156076.63;;;28.20;59.08
61908;BME280;47864;52.526;19.672;2023-09-08T08:52:09;156178.94;;;28.61;60.94
61908;BME280;47864;52.526;19.672;2023-09-08T08:54:12;156225.03;;;28.79;58.39
61908;BME280;47864;52.526;19.672;2023-09-08T08:56:15;156257.00;;;28.92;57.46
61908;BME280;47864;52.526;19.672;2023-09-08T08:58:17;156257.00;;;28.92;56.43
61908;BME280;47864;52.526;19.672;2023-09-08T09:00:19;156248.06;;;28.88;57.77
61908;BME280;47864;52.526;19.672;2023-09-08T09:02:21;156076.63;;;28.20;56.24
61908;BME280;47864;52.526;19.672;2023-09-08T09:04:24;156103.50;;;28.31;56.28
61908;BME280;47864;52.526;19.672;2023-09-08T09:06:26;156088.16;;;28.25;54.89
61908;BME280;47864;52.526;19.672;2023-09-08T09:08:28;156016.47;;;27.96;56.31
61908;BME280;47864;52.526;19.672;2023-09-08T09:10:31;156072.78;;;28.19;56.71
61908;BME280;47864;52.526;19.672;2023-09-08T09:12:33;156143.13;;;28.47;56.75
61908;BME280;47864;52.526;19.672;2023-09-08T09:14:35;156172.53;;;28.58;55.68
61908;BME280;47864;52.526;19.672;2023-09-08T09:16:43;156175.09;;;28.59;53.47
61908;BME280;47864;52.526;19.672;2023-09-08T09:18:59;156209.66;;;28.73;55.45
61908;BME280;47864;52.526;19.672;2023-09-08T09:21:01;156155.91;;;28.52;57.79
61908;BME280;47864;52.526;19.672;2023-09-08T09:23:03;156091.97;;;28.26;52.61
61908;BME280;47864;52.526;19.672;2023-09-08T09:25:04;156122.66;;;28.38;53.15
61908;BME280;47864;52.526;19.672;2023-09-08T09:27:07;156049.72;;;28.10;53.92
61908;BME280;47864;52.526;19.672;2023-09-08T09:29:15;155999.88;;;27.90;55.07
61908;BME280;47864;52.526;19.672;2023-09-08T09:31:16;155912.94;;;27.55;53.84
61908;BME280;47864;52.526;19.672;2023-09-08T09:33:18;155848.97;;;27.30;55.82
61908;BME280;47864;52.526;19.672;2023-09-08T09:35:19;155889.88;;;27.46;56.37
61908;BME280;47864;52.526;19.672;2023-09-08T09:37:24;155941.06;;;27.67;56.19
61908;BME280;47864;52.526;19.672;2023-09-08T09:39:26;156084.31;;;28.23;55.05
61908;BME280;47864;52.526;19.672;2023-09-08T09:41:28;156116.25;;;28.36;52.19
61908;BME280;47864;52.526;19.672;2023-09-08T09:43:30;156068.94;;;28.17;52.41
61908;BME280;47864;52.526;19.672;2023-09-08T09:45:33;156164.88;;;28.55;52.42
61908;BME280;47864;52.526;19.672;2023-09-08T09:47:35;156175.09;;;28.59;52.41
61908;BME280;47864;52.526;19.672;2023-09-08T09:49:43;156255.72;;;28.91;51.74
61908;BME280;47864;52.526;19.672;2023-09-08T09:51:50;156335.06;;;29.23;51.28
61908;BME280;47864;52.526;19.672;2023-09-08T09:53:52;156272.38;;;28.98;49.84
61908;BME280;47864;52.526;19.672;2023-09-08T09:55:56;156318.41;;;29.16;50.32
61908;BME280;47864;52.526;19.672;2023-09-08T09:58:00;156336.34;;;29.23;47.57
61908;BME280;47864;52.526;19.672;2023-09-08T10:00:02;156350.41;;;29.29;49.72
61908;BME280;47864;52.526;19.672;2023-09-08T10:02:04;156395.25;;;29.46;47.61
61908;BME280;47864;52.526;19.672;2023-09-08T10:04:09;156232.72;;;28.82;47.49
61908;BME280;47864;52.526;19.672;2023-09-08T10:06:12;156207.09;;;28.72;47.49
61908;BME280;47864;52.526;19.672;2023-09-08T10:08:14;156155.91;;;28.52;49.59
61908;BME280;47864;52.526;19.672;2023-09-08T10:10:16;156026.69;;;28.00;50.40
61908;BME280;47864;52.526;19.672;2023-09-08T10:12:18;155923.13;;;27.59;53.59
61908;BME280;47864;52.526;19.672;2023-09-08T10:14:21;156086.88;;;28.24;51.76
61908;BME280;47864;52.526;19.672;2023-09-08T10:16:26;155994.75;;;27.88;50.99
61908;BME280;47864;52.526;19.672;2023-09-08T10:18:28;156104.78;;;28.31;50.04
61908;BME280;47864;52.526;19.672;2023-09-08T10:20:30;156159.75;;;28.53;49.94
61908;BME280;47864;52.526;19.672;2023-09-08T10:22:36;155942.34;;;27.67;51.84
61908;BME280;47864;52.526;19.672;2023-09-08T10:24:40;155962.81;;;27.75;51.64
61908;BME280;47864;52.526;19.672;2023-09-08T10:26:44;156003.72;;;27.91;50.70
61908;BME280;47864;52.526;19.672;2023-09-08T10:28:48;155990.91;;;27.86;50.05
61908;BME280;47864;52.526;19.672;2023-09-08T10:30:50;155960.25;;;27.74;50.84